sensor_id;sensor_type;location;lat;lon;timestamp;temperature;humidity
81902;DHT22;71369;50.796;3.290;2023-11-21T06:48:36;11.50;98.00
81902;DHT22;71369;50.796;3.290;2023-11-21T06:51:46;11.50;97.80
81902;DHT22;71369;50.796;3.290;2023-11-21T06:54:12;11.30;98.60
81902;DHT22;71369;50.796;3.290;2023-11-21T06:56:39;11.40;98.80
81902;DHT22;71369;50.796;3.290;2023-11-21T06:59:07;11.40;98.80
81902;DHT22;71369;50.796;3.290;2023-11-21T07:01:34;11.40;98.80
81902;DHT22;71369;50.796;3.290;2023-11-21T07:04:05;11.40;98.50
81902;DHT22;71369;50.796;3.290;2023-11-21T07:06:31;11.40;98.60
81902;DHT22;71369;50.796;3.290;2023-11-21T07:08:57;11.40;98.30
81902;DHT22;71369;50.796;3.290;2023-11-21T07:11:24;11.40;98.40
81902;DHT22;71369;50.796;3.290;2023-11-21T07:13:50;11.40;98.40
81902;DHT22;71369;50.796;3.290;2023-11-21T07:16:16;11.30;98.60
81902;DHT22;71369;50.796;3.290;2023-11-21T07:18:43;11.30;98.60
81902;DHT22;71369;50.796;3.290;2023-11-21T07:21:08;11.30;98.40
81902;DHT22;71369;50.796;3.290;2023-11-21T07:23:34;11.30;98.50
81902;DHT22;71369;50.796;3.290;2023-11-21T07:26:00;11.30;98.50
81902;DHT22;71369;50.796;3.290;2023-11-21T07:28:26;11.40;98.40
81902;DHT22;71369;50.796;3.290;2023-11-21T07:30:51;11.40;98.40
81902;DHT22;71369;50.796;3.290;2023-11-21T07:33:18;11.40;98.30
81902;DHT22;71369;50.796;3.290;2023-11-21T07:35:44;11.40;98.40
81902;DHT22;71369;50.796;3.290;2023-11-21T07:38:09;11.40;98.50
81902;DHT22;71369;50.796;3.290;2023-11-21T07:40:35;11.40;98.50
81902;DHT22;71369;50.796;3.290;2023-11-21T07:43:01;11.40;98.50
81902;DHT22;71369;50.796;3.290;2023-11-21T07:45:27;11.50;98.50
81902;DHT22;71369;50.796;3.290;2023-11-21T07:47:54;11.40;98.40
81902;DHT22;71369;50.796;3.290;2023-11-21T07:50:21;11.60;98.30
81902;DHT22;71369;50.796;3.290;2023-11-21T07:52:49;11.50;98.40
81902;DHT22;71369;50.796;3.290;2023-11-21T07:55:15;11.50;98.80
81902;DHT22;71369;50.796;3.290;2023-11-21T07:57:43;11.50;99.10
81902;DHT22;71369;50.796;3.290;2023-11-21T08:00:09;11.70;99.30
81902;DHT22;71369;50.796;3.290;2023-11-21T08:02:36;11.90;99.10
81902;DHT22;71369;50.796;3.290;2023-11-21T08:05:02;12.10;99.30
81902;DHT22;71369;50.796;3.290;2023-11-21T08:07:29;12.30;99.20
81902;DHT22;71369;50.796;3.290;2023-11-21T08:09:56;12.50;98.30
81902;DHT22;71369;50.796;3.290;2023-11-21T08:12:24;12.60;97.70
81902;DHT22;71369;50.796;3.290;2023-11-21T08:14:49;12.40;97.60
81902;DHT22;71369;50.796;3.290;2023-11-21T08:17:15;12.40;97.30
81902;DHT22;71369;50.796;3.290;2023-11-21T08:19:44;12.40;96.90
81902;DHT22;71369;50.796;3.290;2023-11-21T08:22:11;12.40;97.20
81902;DHT22;71369;50.796;3.290;2023-11-21T08:24:40;12.40;97.20
81902;DHT22;71369;50.796;3.290;2023-11-21T08:27:07;12.30;96.90
81902;DHT22;71369;50.796;3.290;2023-11-21T08:29:36;12.30;97.20
81902;DHT22;71369;50.796;3.290;2023-11-21T08:32:04;12.20;97.40
81902;DHT22;71369;50.796;3.290;2023-11-21T08:34:31;12.20;97.40
81902;DHT22;71369;50.796;3.290;2023-11-21T08:36:58;12.20;97.00
81902;DHT22;71369;50.796;3.290;2023-11-21T08:39:24;12.10;97.20
81902;DHT22;71369;50.796;3.290;2023-11-21T08:41:52;12.10;97.50
81902;DHT22;71369;50.796;3.290;2023-11-21T08:44:18;12.20;97.40
81902;DHT22;71369;50.796;3.290;2023-11-21T08:46:44;12.20;97.40
81902;DHT22;71369;50.796;3.290;2023-11-21T08:49:16;12.20;97.60
81902;DHT22;71369;50.796;3.290;2023-11-21T08:51:46;12.40;98.20
81902;DHT22;71369;50.796;3.290;2023-11-21T08:54:12;12.60;97.40
81902;DHT22;71369;50.796;3.290;2023-11-21T08:56:38;12.90;97.00
81902;DHT22;71369;50.796;3.290;2023-11-21T08:59:04;13.10;97.20
81902;DHT22;71369;50.796;3.290;2023-11-21T09:01:31;13.20;96.30
81902;DHT22;71369;50.796;3.290;2023-11-21T09:03:57;13.20;95.30
81902;DHT22;71369;50.796;3.290;2023-11-21T09:06:27;13.10;94.70
81902;DHT22;71369;50.796;3.290;2023-11-21T09:09:13;13.00;95.00
81902;DHT22;71369;50.796;3.290;2023-11-21T09:11:40;13.00;95.50
81902;DHT22;71369;50.796;3.290;2023-11-21T09:14:21;13.10;95.70
81902;DHT22;71369;50.796;3.290;2023-11-21T09:16:55;13.30;95.50
81902;DHT22;71369;50.796;3.290;2023-11-21T09:19:21;13.50;94.80
81902;DHT22;71369;50.796;3.290;2023-11-21T09:21:47;13.50;94.30
81902;DHT22;71369;50.796;3.290;2023-11-21T09:24:14;13.60;94.80
81902;DHT22;71369;50.796;3.290;2023-11-21T09:26:40;13.80;94.80
81902;DHT22;71369;50.796;3.290;2023-11-21T09:29:06;13.90;94.00
81902;DHT22;71369;50.796;3.290;2023-11-21T09:31:35;14.00;93.90
81902;DHT22;71369;50.796;3.290;2023-11-21T09:34:01;14.40;93.50
81902;DHT22;71369;50.796;3.290;2023-11-21T09:36:28;15.10;92.20
81902;DHT22;71369;50.796;3.290;2023-11-21T09:38:56;16.40;91.60
81902;DHT22;71369;50.796;3.290;2023-11-21T09:41:43;17.30;84.90
81902;DHT22;71369;50.796;3.290;2023-11-21T09:44:13;17.80;80.50
81902;DHT22;71369;50.796;3.290;2023-11-21T09:46:42;18.10;78.90
81902;DHT22;71369;50.796;3.290;2023-11-21T09:49:11;18.00;77.10
81902;DHT22;71369;50.796;3.290;2023-11-21T09:51:45;17.90;75.30
81902;DHT22;71369;50.796;3.290;2023-11-21T09:54:13;17.50;79.30
81902;DHT22;71369;50.796;3.290;2023-11-21T09:56:41;17.40;80.20
81902;DHT22;71369;50.796;3.290;2023-11-21T09:59:13;17.30;79.90
81902;DHT22;71369;50.796;3.290;2023-11-21T10:01:39;17.30;78.90
81902;DHT22;71369;50.796;3.290;2023-11-21T10:04:06;17.10;80.30
81902;DHT22;71369;50.796;3.290;2023-11-21T10:06:41;16.90;79.00
81902;DHT22;71369;50.796;3.290;2023-11-21T10:09:10;16.40;81.50
81902;DHT22;71369;50.796;3.290;2023-11-21T10:11:41;16.10;83.30
81902;DHT22;71369;50.796;3.290;2023-11-21T10:14:10;16.00;84.00
81902;DHT22;71369;50.796;3.290;2023-11-21T10:16:37;16.10;84.70
81902;DHT22;71369;50.796;3.290;2023-11-21T10:19:04;16.10;82.60
81902;DHT22;71369;50.796;3.290;2023-11-21T10:21:32;15.80;82.80
81902;DHT22;71369;50.796;3.290;2023-11-21T10:23:58;15.60;85.10
81902;DHT22;71369;50.796;3.290;2023-11-21T10:26:28;15.30;84.50
81902;DHT22;71369;50.796;3.290;2023-11-21T10:29:01;15.00;85.90
81902;DHT22;71369;50.796;3.290;2023-11-21T10:31:31;14.70;86.90
81902;DHT22;71369;50.796;3.290;2023-11-21T10:34:16;14.50;88.80
81902;DHT22;71369;50.796;3.290;2023-11-21T10:36:42;14.40;90.30
81902;DHT22;71369;50.796;3.290;2023-11-21T10:39:08;14.30;90.20
81902;DHT22;71369;50.796;3.290;2023-11-21T10:41:35;14.10;90.80
81902;DHT22;71369;50.796;3.290;2023-11-21T10:44:02;13.90;91.10
81902;DHT22;71369;50.796;3.290;2023-11-21T10:46:33;13.80;91.80
81902;DHT22;71369;50.796;3.290;2023-11-21T10:49:05;13.60;92.50
81902;DHT22;71369;50.796;3.290;2023-11-21T10:51:32;13.60;93.20
81902;DHT22;71369;50.796;3.290;2023-11-21T10:53:59;13.60;93.50
81902;DHT22;71369;50.796;3.290;2023-11-21T10:56:26;13.60;93.30
81902;DHT22;71369;50.796;3.290;2023-11-21T10:58:52;13.70;93.40
81902;DHT22;71369;50.796;3.290;2023-11-21T11:01:19;13.80;92.60
81902;DHT22;71369;50.796;3.290;2023-11-21T11:03:47;13.80;92.20
81902;DHT22;71369;50.796;3.290;2023-11-21T11:06:14;13.80;92.10
81902;DHT22;71369;50.796;3.290;2023-11-21T11:08:40;13.80;92.60
81902;DHT22;71369;50.796;3.290;2023-11-21T11:11:07;13.80;92.40
81902;DHT22;71369;50.796;3.290;2023-11-21T11:13:33;14.00;92.20
81902;DHT22;71369;50.796;3.290;2023-11-21T11:16:00;14.30;91.00
81902;DHT22;71369;50.796;3.290;2023-11-21T11:18:28;14.40;90.30
81902;DHT22;71369;50.796;3.290;2023-11-21T11:21:00;14.40;90.60
81902;DHT22;71369;50.796;3.290;2023-11-21T11:23:55;14.40;90.60
81902;DHT22;71369;50.796;3.290;2023-11-21T11:35:26;15.30;86.60
81902;DHT22;71369;50.796;3.290;2023-11-21T11:37:56;16.00;86.50
81902;DHT22;71369;50.796;3.290;2023-11-21T11:40:22;16.30;83.00
81902;DHT22;71369;50.796;3.290;2023-11-21T11:42:58;16.20;82.30
81902;DHT22;71369;50.796;3.290;2023-11-21T11:45:33;16.00;81.30
81902;DHT22;71369;50.796;3.290;2023-11-21T11:48:01;15.50;82.00
81902;DHT22;71369;50.796;3.290;2023-11-21T11:50:28;15.30;82.70
81902;DHT22;71369;50.796;3.290;2023-11-21T11:52:54;14.90;83.20
81902;DHT22;71369;50.796;3.290;2023-11-21T11:55:24;15.40;84.10
81902;DHT22;71369;50.796;3.290;2023-11-21T11:57:52;16.20;81.20
81902;DHT22;71369;50.796;3.290;2023-11-21T12:00:43;17.00;78.00
81902;DHT22;71369;50.796;3.290;2023-11-21T12:03:14;17.80;75.30
81902;DHT22;71369;50.796;3.290;2023-11-21T12:05:40;17.90;71.00
81902;DHT22;71369;50.796;3.290;2023-11-21T12:08:11;17.40;71.40
81902;DHT22;71369;50.796;3.290;2023-11-21T12:10:40;17.20;73.40
81902;DHT22;71369;50.796;3.290;2023-11-21T12:13:10;16.90;74.10
81902;DHT22;71369;50.796;3.290;2023-11-21T12:18:57;16.40;75.00
81902;DHT22;71369;50.796;3.290;2023-11-21T12:21:23;16.00;77.90
81902;DHT22;71369;50.796;3.290;2023-11-21T12:23:49;15.60;78.90
81902;DHT22;71369;50.796;3.290;2023-11-21T12:26:15;15.30;79.40
81902;DHT22;71369;50.796;3.290;2023-11-21T12:28:40;15.10;80.40
81902;DHT22;71369;50.796;3.290;2023-11-21T12:31:06;14.70;81.10
81902;DHT22;71369;50.796;3.290;2023-11-21T12:33:36;14.70;83.10
81902;DHT22;71369;50.796;3.290;2023-11-21T12:36:02;14.70;82.10
81902;DHT22;71369;50.796;3.290;2023-11-21T12:38:35;14.90;84.20
81902;DHT22;71369;50.796;3.290;2023-11-21T12:41:01;15.40;82.00
81902;DHT22;71369;50.796;3.290;2023-11-21T12:43:27;15.70;80.20
81902;DHT22;71369;50.796;3.290;2023-11-21T12:46:07;16.00;77.10
81902;DHT22;71369;50.796;3.290;2023-11-21T12:48:37;16.00;76.00
81902;DHT22;71369;50.796;3.290;2023-11-21T12:51:05;16.30;75.90
81902;DHT22;71369;50.796;3.290;2023-11-21T12:53:32;16.40;75.20
81902;DHT22;71369;50.796;3.290;2023-11-21T12:56:12;16.40;75.00
81902;DHT22;71369;50.796;3.290;2023-11-21T12:58:40;16.10;73.20
81902;DHT22;71369;50.796;3.290;2023-11-21T13:01:10;15.60;75.10
81902;DHT22;71369;50.796;3.290;2023-11-21T13:03:38;15.10;74.70
81902;DHT22;71369;50.796;3.290;2023-11-21T13:06:06;14.50;76.80
81902;DHT22;71369;50.796;3.290;2023-11-21T13:08:33;14.30;78.40
81902;DHT22;71369;50.796;3.290;2023-11-21T13:10:59;14.20;78.40
81902;DHT22;71369;50.796;3.290;2023-11-21T13:13:27;14.40;78.50
81902;DHT22;71369;50.796;3.290;2023-11-21T13:15:58;14.60;77.40
81902;DHT22;71369;50.796;3.290;2023-11-21T13:18:27;15.00;76.10
81902;DHT22;71369;50.796;3.290;2023-11-21T13:20:54;15.10;73.20
81902;DHT22;71369;50.796;3.290;2023-11-21T13:23:21;15.00;73.60
81902;DHT22;71369;50.796;3.290;2023-11-21T13:25:48;14.70;75.10
81902;DHT22;71369;50.796;3.290;2023-11-21T13:28:15;14.50;75.40
81902;DHT22;71369;50.796;3.290;2023-11-21T13:30:46;14.30;77.40
81902;DHT22;71369;50.796;3.290;2023-11-21T13:33:13;14.40;78.00
81902;DHT22;71369;50.796;3.290;2023-11-21T13:35:44;14.50;77.10
81902;DHT22;71369;50.796;3.290;2023-11-21T13:38:19;14.70;77.20
81902;DHT22;71369;50.796;3.290;2023-11-21T13:40:52;14.80;76.50
81902;DHT22;71369;50.796;3.290;2023-11-21T13:43:24;14.80;76.50
81902;DHT22;71369;50.796;3.290;2023-11-21T13:45:52;14.80;76.70
81902;DHT22;71369;50.796;3.290;2023-11-21T13:48:25;14.70;78.20
81902;DHT22;71369;50.796;3.290;2023-11-21T13:51:00;14.60;77.30
81902;DHT22;71369;50.796;3.290;2023-11-21T13:53:47;14.50;78.40
81902;DHT22;71369;50.796;3.290;2023-11-21T13:56:15;14.50;79.40
81902;DHT22;71369;50.796;3.290;2023-11-21T13:58:49;14.60;78.00
81902;DHT22;71369;50.796;3.290;2023-11-21T14:01:24;14.40;79.00
81902;DHT22;71369;50.796;3.290;2023-11-21T14:04:10;14.20;79.30
81902;DHT22;71369;50.796;3.290;2023-11-21T14:06:36;14.00;79.30
81902;DHT22;71369;50.796;3.290;2023-11-21T14:09:17;13.80;79.80
81902;DHT22;71369;50.796;3.290;2023-11-21T14:11:54;13.70;80.70
81902;DHT22;71369;50.796;3.290;2023-11-21T14:14:22;13.40;81.80
81902;DHT22;71369;50.796;3.290;2023-11-21T14:16:49;13.20;82.70
81902;DHT22;71369;50.796;3.290;2023-11-21T14:19:17;13.10;83.90
81902;DHT22;71369;50.796;3.290;2023-11-21T14:21:43;13.10;84.20
81902;DHT22;71369;50.796;3.290;2023-11-21T14:24:10;13.00;84.70
81902;DHT22;71369;50.796;3.290;2023-11-21T14:26:39;13.00;84.40
81902;DHT22;71369;50.796;3.290;2023-11-21T14:29:06;13.00;85.00
81902;DHT22;71369;50.796;3.290;2023-11-21T14:31:32;13.10;85.40
81902;DHT22;71369;50.796;3.290;2023-11-21T14:33:57;13.20;85.60
81902;DHT22;71369;50.796;3.290;2023-11-21T14:36:24;13.30;84.70
81902;DHT22;71369;50.796;3.290;2023-11-21T14:38:50;13.40;84.90
81902;DHT22;71369;50.796;3.290;2023-11-21T14:41:16;13.40;85.00
81902;DHT22;71369;50.796;3.290;2023-11-21T14:43:42;13.50;83.80
81902;DHT22;71369;50.796;3.290;2023-11-21T14:46:10;13.50;83.10
81902;DHT22;71369;50.796;3.290;2023-11-21T14:48:41;13.50;83.90
81902;DHT22;71369;50.796;3.290;2023-11-21T14:51:20;13.50;83.90
81902;DHT22;71369;50.796;3.290;2023-11-21T14:54:33;13.60;83.50
81902;DHT22;71369;50.796;3.290;2023-11-21T14:57:34;13.60;83.20
81902;DHT22;71369;50.796;3.290;2023-11-21T15:00:29;13.60;82.40
81902;DHT22;71369;50.796;3.290;2023-11-21T15:03:19;13.80;81.70
81902;DHT22;71369;50.796;3.290;2023-11-21T15:12:49;13.80;81.70
81902;DHT22;71369;50.796;3.290;2023-11-21T15:22:43;13.40;82.40
81902;DHT22;71369;50.796;3.290;2023-11-21T15:25:20;13.30;82.60
81902;DHT22;71369;50.796;3.290;2023-11-21T15:27:47;13.20;82.70
81902;DHT22;71369;50.796;3.290;2023-11-21T15:30:16;13.10;83.20
81902;DHT22;71369;50.796;3.290;2023-11-21T15:33:16;12.90;83.80
81902;DHT22;71369;50.796;3.290;2023-11-21T15:39:37;12.70;85.10
81902;DHT22;71369;50.796;3.290;2023-11-21T15:48:34;12.30;87.10
81902;DHT22;71369;50.796;3.290;2023-11-21T15:51:18;12.20;87.50
81902;DHT22;71369;50.796;3.290;2023-11-21T15:54:09;12.20;88.50
81902;DHT22;71369;50.796;3.290;2023-11-21T15:56:55;12.10;87.40
81902;DHT22;71369;50.796;3.290;2023-11-21T16:00:05;11.90;88.90
81902;DHT22;71369;50.796;3.290;2023-11-21T16:05:43;11.60;90.20
81902;DHT22;71369;50.796;3.290;2023-11-21T16:30:48;11.20;91.40
81902;DHT22;71369;50.796;3.290;2023-11-21T16:33:17;11.40;90.80
81902;DHT22;71369;50.796;3.290;2023-11-21T16:37:07;11.20;91.10
81902;DHT22;71369;50.796;3.290;2023-11-21T16:53:08;10.90;91.60
81902;DHT22;71369;50.796;3.290;2023-11-21T17:02:18;10.80;92.20
81902;DHT22;71369;50.796;3.290;2023-11-21T17:04:56;10.70;92.20
81902;DHT22;71369;50.796;3.290;2023-11-21T17:07:48;10.70;92.30
81902;DHT22;71369;50.796;3.290;2023-11-21T17:10:41;10.70;92.40
81902;DHT22;71369;50.796;3.290;2023-11-21T17:13:42;10.60;92.60
81902;DHT22;71369;50.796;3.290;2023-11-21T17:19:21;10.60;92.60
81902;DHT22;71369;50.796;3.290;2023-11-21T17:22:07;10.60;92.60
81902;DHT22;71369;50.796;3.290;2023-11-21T17:24:48;10.60;92.60
81902;DHT22;71369;50.796;3.290;2023-11-21T17:27:29;10.60;92.90
81902;DHT22;71369;50.796;3.290;2023-11-21T17:30:12;10.70;92.80
81902;DHT22;71369;50.796;3.290;2023-11-21T17:32:40;10.80;92.80
81902;DHT22;71369;50.796;3.290;2023-11-21T17:35:06;10.80;92.60
81902;DHT22;71369;50.796;3.290;2023-11-21T17:37:32;10.80;92.60
81902;DHT22;71369;50.796;3.290;2023-11-21T17:39:58;10.90;92.60
81902;DHT22;71369;50.796;3.290;2023-11-21T19:20:16;11.30;92.30
81902;DHT22;71369;50.796;3.290;2023-11-21T19:23:14;11.10;92.60
81902;DHT22;71369;50.796;3.290;2023-11-21T19:26:09;11.20;92.50
81902;DHT22;71369;50.796;3.290;2023-11-21T20:52:27;10.60;92.00
81902;DHT22;71369;50.796;3.290;2023-11-21T21:34:21;9.70;91.80
81902;DHT22;71369;50.796;3.290;2023-11-21T21:37:08;9.70;91.10
81902;DHT22;71369;50.796;3.290;2023-11-21T23:43:05;6.80;96.20
